Terminal Aerodrome Forecast
Issued by NWS

Home | Current Version | Previous Version | Text Only | Print | Product List | Glossary On
Versions: 1 2 3 4 5 6 7 8 9 10 11 12 13 14 15
000
FTUS45 KVEF 310500
TAFHND
TAF
KHND 310529Z 3106/0106 VRB05KT P6SM VCSH FEW030 BKN035 OVC050
     FM311500 01006KT P6SM SCT035 OVC050
     FM311900 01011G18KT P6SM SCT050 BKN080
     FM010400 35011KT P6SM SKC=

USA.gov is the U.S. government's official web portal to all federal, state and local government web resources and services.